createdAt,value
2019-04-07T00:01:46.612Z,19.07
2019-04-07T00:04:29.810Z,19.70
2019-04-07T00:07:12.150Z,20.23
2019-04-07T00:09:54.966Z,19.05
2019-04-07T00:12:38.059Z,19.25
2019-04-07T00:15:20.840Z,17.80
2019-04-07T00:18:05.023Z,18.45
2019-04-07T00:20:48.490Z,18.25
2019-04-07T00:23:31.941Z,18.00
2019-04-07T00:26:21.823Z,17.57
2019-04-07T00:29:11.139Z,19.10
2019-04-07T00:34:35.881Z,17.98
2019-04-07T00:37:12.876Z,18.65
2019-04-07T00:40:01.066Z,18.50
2019-04-07T00:42:38.049Z,19.95
2019-04-07T00:45:26.346Z,18.77
2019-04-07T00:50:51.345Z,17.45
2019-04-07T00:53:47.349Z,18.80
2019-04-07T00:56:43.865Z,18.67
2019-04-07T00:59:39.838Z,18.95
2019-04-07T01:02:28.584Z,18.20
2019-04-07T01:05:06.015Z,18.50
2019-04-07T01:07:56.416Z,18.67
2019-04-07T01:10:33.678Z,18.57
2019-04-07T01:13:24.008Z,20.15
2019-04-07T01:16:08.258Z,31.02
2019-04-07T01:18:56.945Z,20.35
2019-04-07T01:21:40.406Z,18.87
2019-04-07T01:24:37.270Z,18.62
2019-04-07T01:27:34.609Z,17.95
2019-04-07T01:30:30.422Z,18.35
2019-04-07T01:33:19.216Z,18.37
2019-04-07T01:35:56.412Z,18.70
2019-04-07T01:38:46.372Z,19.35
2019-04-07T01:41:37.111Z,19.15
2019-04-07T01:44:24.570Z,20.68
2019-04-07T01:47:15.127Z,19.37
2019-04-07T01:50:08.685Z,19.55
2019-04-07T01:52:53.646Z,19.10
2019-04-07T01:55:55.326Z,18.80
2019-04-07T01:58:56.233Z,22.02
2019-04-07T02:01:41.676Z,19.45
2019-04-07T02:04:41.293Z,19.80
2019-04-07T02:07:41.660Z,19.07
2019-04-07T02:10:36.370Z,19.60
2019-04-07T02:13:26.459Z,20.08
2019-04-07T02:16:22.322Z,19.15
2019-04-07T02:19:12.774Z,19.73
2019-04-07T02:21:58.291Z,19.75
2019-04-07T02:24:43.218Z,19.77
2019-04-07T02:27:41.304Z,18.75
2019-04-07T02:30:48.629Z,19.20
2019-04-07T02:33:35.467Z,18.70
2019-04-07T02:36:43.199Z,18.73
2019-04-07T02:39:21.515Z,19.77
2019-04-07T02:42:15.918Z,19.23
2019-04-07T02:45:07.604Z,21.10
2019-04-07T02:48:07.765Z,19.90
2019-04-07T02:51:09.670Z,21.80
2019-04-07T02:53:57.076Z,21.17
2019-04-07T02:57:06.479Z,21.02
2019-04-07T03:02:38.007Z,20.95
2019-04-07T03:05:16.023Z,21.77
2019-04-07T03:08:22.631Z,21.48
2019-04-07T03:11:00.619Z,21.27
2019-04-07T03:13:52.102Z,21.60
2019-04-07T03:16:29.714Z,20.60
2019-04-07T03:19:22.059Z,21.42
2019-04-07T03:22:18.545Z,20.52
2019-04-07T03:27:55.803Z,19.17
2019-04-07T03:31:02.130Z,18.48
2019-04-07T03:33:43.258Z,19.05
2019-04-07T03:37:09.434Z,19.70
2019-04-07T03:39:15.076Z,18.90
2019-04-07T03:42:15.765Z,18.17
2019-04-07T03:45:08.748Z,19.60
2019-04-07T03:47:52.988Z,18.95
2019-04-07T03:51:00.471Z,19.55
2019-04-07T03:53:52.310Z,19.57
2019-04-07T03:56:52.951Z,18.73
2019-04-07T03:59:55.426Z,18.77
2019-04-07T04:02:52.477Z,18.48
2019-04-07T04:05:37.129Z,18.92
2019-04-07T04:08:28.769Z,19.50
2019-04-07T04:11:16.627Z,18.50
2019-04-07T04:14:07.956Z,18.90
2019-04-07T04:16:52.194Z,18.75
2019-04-07T04:19:34.702Z,18.50
2019-04-07T04:22:17.427Z,19.75
2019-04-07T04:25:01.043Z,18.82
2019-04-07T04:27:45.204Z,19.00
2019-04-07T04:30:28.644Z,19.40
2019-04-07T04:33:11.043Z,18.57
2019-04-07T04:35:53.858Z,18.15
2019-04-07T04:38:36.989Z,18.70
2019-04-07T04:41:21.014Z,17.70
2019-04-07T04:44:03.876Z,17.73
2019-04-07T04:46:53.671Z,16.55
2019-04-07T04:49:37.118Z,16.45
2019-04-07T04:52:20.714Z,15.83
2019-04-07T04:55:09.725Z,16.15
2019-04-07T04:57:45.842Z,16.75
2019-04-07T05:00:36.206Z,16.32
2019-04-07T05:03:19.684Z,15.80
2019-04-07T05:06:14.810Z,15.30
2019-04-07T05:09:13.356Z,16.48
2019-04-07T05:12:09.371Z,16.50
2019-04-07T05:15:05.397Z,17.07
2019-04-07T05:18:01.964Z,16.30
2019-04-07T05:20:51.244Z,15.50
2019-04-07T05:23:34.848Z,15.90
2019-04-07T05:26:31.207Z,16.05
2019-04-07T05:29:28.121Z,16.07
2019-04-07T05:32:25.225Z,17.85
2019-04-07T05:35:22.462Z,18.20
2019-04-07T05:38:11.842Z,15.45
2019-04-07T05:40:54.334Z,15.78
2019-04-07T05:43:44.032Z,15.38
2019-04-07T05:46:20.179Z,14.78
2019-04-07T05:49:09.031Z,15.55
2019-04-07T05:51:44.749Z,13.60
2019-04-07T05:54:34.047Z,13.08
2019-04-07T05:57:10.547Z,13.55
2019-04-07T06:00:00.407Z,13.83
2019-04-07T06:02:37.432Z,13.22
2019-04-07T06:05:26.615Z,12.53
2019-04-07T06:10:57.537Z,13.00
2019-04-07T06:13:31.279Z,13.75
2019-04-07T06:16:20.975Z,15.70
2019-04-07T06:19:07.892Z,15.28
2019-04-07T06:22:02.336Z,15.63
2019-04-07T06:24:52.309Z,15.25
2019-04-07T06:27:35.816Z,15.43
2019-04-07T06:30:33.929Z,14.68
2019-04-07T06:33:23.019Z,15.25
2019-04-07T06:36:06.723Z,14.63
2019-04-07T06:39:03.599Z,14.50
2019-04-07T06:42:01.099Z,14.87
2019-04-07T06:44:59.789Z,14.30
2019-04-07T06:47:43.334Z,13.90
2019-04-07T06:50:45.524Z,13.72
2019-04-07T06:53:31.821Z,14.03
2019-04-07T06:59:15.018Z,15.00
2019-04-07T07:02:20.875Z,15.08
2019-04-07T07:05:05.286Z,15.00
2019-04-07T07:07:49.827Z,14.93
2019-04-07T07:10:43.946Z,13.90
2019-04-07T07:13:42.941Z,15.05
2019-04-07T07:16:26.529Z,15.35
2019-04-07T07:19:34.696Z,13.30
2019-04-07T07:22:21.047Z,12.78
2019-04-07T07:25:12.051Z,12.53
2019-04-07T07:27:54.902Z,12.60
2019-04-07T07:30:52.543Z,13.70
2019-04-07T07:33:42.634Z,12.35
2019-04-07T07:36:21.457Z,13.58
2019-04-07T07:39:11.789Z,12.95
2019-04-07T07:41:50.343Z,14.18
2019-04-07T07:44:38.751Z,14.60
2019-04-07T07:47:14.882Z,15.05
2019-04-07T07:50:05.391Z,14.83
2019-04-07T07:52:51.359Z,14.65
2019-04-07T07:55:46.720Z,14.63
2019-04-07T07:58:43.088Z,15.60
2019-04-07T08:01:39.850Z,14.55
2019-04-07T08:04:29.179Z,15.35
2019-04-07T08:07:14.521Z,14.78
2019-04-07T08:10:01.755Z,14.13
2019-04-07T08:12:37.985Z,15.28
2019-04-07T08:15:31.940Z,14.40
2019-04-07T08:18:08.141Z,13.65
2019-04-07T08:20:56.721Z,13.85
2019-04-07T08:23:41.194Z,13.48
2019-04-07T08:26:29.938Z,13.75
2019-04-07T08:29:13.608Z,12.53
2019-04-07T08:32:09.693Z,12.70
2019-04-07T08:35:06.796Z,13.00
2019-04-07T08:37:56.811Z,13.25
2019-04-07T08:40:32.676Z,11.78
2019-04-07T08:43:23.581Z,11.12
2019-04-07T08:46:02.276Z,10.72
2019-04-07T08:48:52.689Z,10.28
2019-04-07T08:51:35.131Z,9.98
2019-04-07T08:54:25.301Z,9.05
2019-04-07T08:57:08.286Z,9.50
2019-04-07T08:59:51.389Z,8.73
2019-04-07T09:02:33.534Z,8.00
2019-04-07T09:10:39.390Z,7.55
2019-04-07T09:13:22.371Z,6.67
2019-04-07T09:16:22.554Z,6.65
2019-04-07T09:19:19.273Z,6.40
2019-04-07T09:22:29.720Z,6.30
2019-04-07T09:25:24.709Z,5.37
2019-04-07T09:28:22.146Z,5.30
2019-04-07T09:31:04.731Z,5.60
2019-04-07T09:33:58.252Z,6.05
2019-04-07T09:36:53.000Z,5.65
2019-04-07T09:39:56.747Z,5.53
2019-04-07T09:42:27.966Z,6.45
2019-04-07T09:45:34.539Z,6.03
2019-04-07T09:48:17.709Z,5.42
2019-04-07T09:51:07.463Z,5.15
2019-04-07T09:54:09.057Z,4.75
2019-04-07T09:57:07.410Z,5.22
2019-04-07T09:59:59.342Z,5.20
2019-04-07T10:02:40.430Z,5.37
2019-04-07T10:05:40.208Z,5.20
2019-04-07T10:08:28.570Z,5.10
2019-04-07T10:11:27.424Z,5.37
2019-04-07T10:14:42.899Z,4.60
2019-04-07T10:17:39.730Z,4.22
2019-04-07T10:20:25.850Z,3.90
2019-04-07T10:23:32.825Z,4.05
2019-04-07T10:26:31.390Z,4.35
2019-04-07T10:29:35.336Z,4.80
2019-04-07T10:32:41.763Z,5.00
2019-04-07T10:35:49.500Z,4.90
2019-04-07T10:38:43.765Z,5.08
2019-04-07T10:41:41.679Z,5.17
2019-04-07T10:44:44.187Z,5.00
2019-04-07T10:48:00.348Z,4.30
2019-04-07T10:50:53.819Z,4.33
2019-04-07T10:53:35.096Z,3.98
2019-04-07T10:56:35.435Z,3.25
2019-04-07T10:59:14.507Z,3.72
2019-04-07T11:02:08.455Z,3.62
2019-04-07T11:04:55.212Z,3.90
2019-04-07T11:07:47.089Z,4.30
2019-04-07T11:10:39.148Z,3.33
2019-04-07T11:13:44.599Z,2.60
2019-04-07T11:16:40.707Z,3.10
2019-04-07T11:19:38.175Z,3.60
2019-04-07T11:22:22.563Z,3.83
2019-04-07T11:25:15.041Z,3.60
2019-04-07T11:27:55.333Z,4.03
2019-04-07T11:30:49.677Z,4.15
2019-04-07T11:33:35.095Z,4.00
2019-04-07T11:36:35.240Z,21.93
2019-04-07T11:39:29.086Z,4.03
2019-04-07T11:42:14.129Z,3.65
2019-04-07T11:45:11.292Z,3.50
2019-04-07T11:47:49.296Z,3.33
2019-04-07T11:50:54.841Z,2.90
2019-04-07T11:53:39.947Z,3.50
2019-04-07T11:56:25.066Z,3.98
2019-04-07T11:59:24.547Z,3.70
2019-04-07T12:02:10.684Z,3.52
2019-04-07T12:04:58.935Z,2.87
2019-04-07T12:10:27.564Z,3.70
2019-04-07T12:13:32.986Z,4.00
2019-04-07T12:16:30.836Z,3.72
2019-04-07T12:19:33.376Z,3.77
2019-04-07T12:22:21.745Z,3.47
2019-04-07T12:25:23.754Z,3.75
2019-04-07T12:28:01.948Z,3.80
2019-04-07T12:30:54.460Z,3.00
2019-04-07T12:34:03.906Z,3.92
2019-04-07T12:37:04.636Z,3.95
2019-04-07T12:40:03.372Z,3.10
2019-04-07T12:43:13.178Z,3.50
2019-04-07T12:46:06.640Z,4.12
2019-04-07T12:48:54.344Z,4.15
2019-04-07T12:51:57.025Z,4.42
2019-04-07T12:54:43.695Z,3.20
2019-04-07T13:00:52.313Z,3.37
2019-04-07T13:03:40.795Z,4.33
2019-04-07T13:06:45.230Z,2.70
2019-04-07T13:09:41.858Z,2.10
2019-04-07T13:12:24.805Z,3.08
2019-04-07T13:15:20.575Z,2.47
2019-04-07T13:18:10.999Z,2.77
2019-04-07T13:21:09.009Z,3.12
2019-04-07T13:24:10.918Z,2.85
2019-04-07T13:27:17.973Z,3.52
2019-04-07T13:30:01.029Z,2.50
2019-04-07T13:33:04.644Z,1.95
2019-04-07T13:35:50.856Z,1.90
2019-04-07T13:38:43.514Z,1.50
2019-04-07T13:41:41.676Z,2.45
2019-04-07T13:44:27.233Z,2.15
2019-04-07T13:47:31.929Z,2.00
2019-04-07T13:50:30.002Z,2.00
2019-04-07T13:53:20.709Z,2.37
2019-04-07T13:56:28.639Z,2.33
2019-04-07T13:59:27.219Z,2.30
2019-04-07T14:02:30.305Z,2.45
2019-04-07T14:05:11.166Z,2.15
2019-04-07T14:08:06.032Z,2.72
2019-04-07T14:10:43.991Z,2.35
2019-04-07T14:13:52.302Z,2.08
2019-04-07T14:16:31.259Z,2.60
2019-04-07T14:19:40.144Z,2.10
2019-04-07T14:22:34.299Z,2.33
2019-04-07T14:25:26.750Z,2.45
2019-04-07T14:34:23.016Z,2.50
2019-04-07T14:37:26.439Z,2.27
2019-04-07T14:40:40.957Z,1.85
2019-04-07T14:43:50.918Z,2.10
2019-04-07T14:46:58.719Z,2.30
2019-04-07T14:49:57.242Z,2.30
2019-04-07T14:52:55.342Z,2.47
2019-04-07T14:55:56.046Z,2.72
2019-04-07T14:58:51.418Z,2.25
2019-04-07T15:04:26.886Z,2.80
2019-04-07T15:07:21.577Z,52.20
2019-04-07T15:10:09.523Z,3.05
2019-04-07T15:13:03.175Z,3.15
2019-04-07T15:15:39.970Z,2.90
2019-04-07T15:18:30.714Z,2.80
2019-04-07T15:21:06.818Z,3.22
2019-04-07T15:23:57.223Z,3.10
2019-04-07T15:26:34.736Z,2.98
2019-04-07T15:29:24.281Z,2.67
2019-04-07T15:32:00.321Z,2.72
2019-04-07T15:34:43.666Z,2.62
2019-04-07T15:37:34.688Z,3.27
2019-04-07T15:40:33.858Z,2.92
2019-04-07T15:43:28.949Z,3.20
2019-04-07T15:46:19.179Z,3.25
2019-04-07T15:48:56.703Z,3.10
2019-04-07T15:51:45.720Z,3.77
2019-04-07T15:54:28.610Z,4.03
2019-04-07T15:57:20.203Z,4.47
2019-04-07T16:00:03.923Z,6.12
2019-04-07T16:02:46.162Z,5.42
2019-04-07T16:05:29.993Z,4.40
2019-04-07T16:08:13.622Z,3.90
2019-04-07T16:10:56.718Z,3.40
2019-04-07T16:13:39.162Z,3.65
2019-04-07T16:16:26.553Z,6.45
2019-04-07T16:19:08.790Z,6.35
2019-04-07T16:21:51.451Z,6.60
2019-04-07T16:24:34.704Z,6.60
2019-04-07T16:27:17.394Z,7.20
2019-04-07T16:30:01.112Z,7.58
2019-04-07T16:32:59.700Z,7.33
2019-04-07T16:35:56.321Z,7.10
2019-04-07T16:38:51.110Z,7.28
2019-04-07T16:41:44.171Z,7.22
2019-04-07T16:44:19.066Z,7.17
2019-04-07T16:47:17.799Z,7.83
2019-04-07T16:49:52.427Z,7.40
2019-04-07T16:52:43.102Z,8.03
2019-04-07T16:55:48.958Z,8.60
2019-04-07T16:58:37.658Z,7.25
2019-04-07T17:01:26.607Z,7.55
2019-04-07T17:04:22.673Z,8.25
2019-04-07T17:07:28.537Z,8.93
2019-04-07T17:10:28.860Z,8.58
2019-04-07T17:13:32.135Z,9.13
2019-04-07T17:16:22.891Z,8.45
2019-04-07T17:19:09.847Z,9.08
2019-04-07T17:21:53.419Z,8.30
2019-04-07T17:24:49.846Z,8.40
2019-04-07T17:27:45.382Z,8.83
2019-04-07T17:30:41.217Z,8.28
2019-04-07T17:33:38.268Z,8.20
2019-04-07T17:36:35.366Z,8.95
2019-04-07T17:39:37.699Z,9.48
2019-04-07T17:42:27.247Z,11.93
2019-04-07T17:45:21.253Z,10.65
2019-04-07T17:48:37.361Z,10.90
2019-04-07T17:51:12.846Z,10.85
2019-04-07T17:54:21.399Z,9.93
2019-04-07T17:57:04.005Z,8.50
2019-04-07T18:00:02.807Z,8.68
2019-04-07T18:02:53.219Z,8.40
2019-04-07T18:05:45.333Z,8.18
2019-04-07T18:08:41.740Z,8.80
2019-04-07T18:11:31.793Z,8.40
2019-04-07T18:14:54.885Z,8.43
2019-04-07T18:17:51.982Z,9.08
2019-04-07T18:20:56.072Z,8.98
2019-04-07T18:23:49.482Z,8.48
2019-04-07T18:26:27.419Z,8.20
2019-04-07T18:29:34.192Z,9.28
2019-04-07T18:32:18.689Z,8.20
2019-04-07T18:35:06.471Z,8.08
2019-04-07T18:38:19.542Z,7.28
2019-04-07T18:41:16.635Z,7.65
2019-04-07T18:44:13.908Z,7.72
2019-04-07T18:46:52.744Z,7.28
2019-04-07T18:50:03.966Z,7.85
2019-04-07T18:52:58.304Z,7.80
2019-04-07T18:55:55.775Z,8.90
2019-04-07T18:58:59.740Z,8.30
2019-04-07T19:01:57.830Z,7.80
2019-04-07T19:04:43.428Z,7.80
2019-04-07T19:07:50.478Z,8.83
2019-04-07T19:10:45.461Z,7.75
2019-04-07T19:13:37.076Z,7.75
2019-04-07T19:16:29.851Z,8.18
2019-04-07T19:19:14.710Z,8.03
2019-04-07T19:22:08.858Z,8.45
2019-04-07T19:24:47.522Z,8.90
2019-04-07T19:27:55.351Z,8.28
2019-04-07T19:30:39.102Z,8.65
2019-04-07T19:33:36.046Z,8.63
2019-04-07T19:36:18.818Z,8.63
2019-04-07T19:39:25.070Z,8.98
2019-04-07T19:42:20.090Z,8.33
2019-04-07T19:45:00.383Z,8.88
2019-04-07T19:48:09.798Z,8.65
2019-04-07T19:51:03.091Z,9.55
2019-04-07T19:54:09.078Z,9.10
2019-04-07T19:57:09.730Z,8.80
2019-04-07T19:59:57.014Z,8.18
2019-04-07T20:02:51.135Z,9.38
2019-04-07T20:05:38.707Z,9.43
2019-04-07T20:08:40.372Z,9.43
2019-04-07T20:11:43.757Z,8.70
2019-04-07T20:14:44.979Z,9.55
2019-04-07T20:17:35.669Z,10.10
2019-04-07T20:20:38.490Z,9.00
2019-04-07T20:23:39.609Z,9.13
2019-04-07T20:26:46.536Z,9.27
2019-04-07T20:29:41.611Z,9.28
2019-04-07T20:32:40.186Z,9.50
2019-04-07T20:35:33.950Z,9.25
2019-04-07T20:38:19.099Z,9.60
2019-04-07T20:41:19.698Z,9.10
2019-04-07T20:44:36.577Z,9.85
2019-04-07T20:47:40.408Z,10.25
2019-04-07T20:50:24.576Z,9.95
2019-04-07T20:53:21.783Z,9.90
2019-04-07T20:56:01.879Z,10.15
2019-04-07T20:58:59.534Z,10.98
2019-04-07T21:02:03.138Z,10.75
2019-04-07T21:04:44.023Z,10.05
2019-04-07T21:07:33.735Z,10.50
2019-04-07T21:10:24.311Z,10.38
2019-04-07T21:13:09.781Z,11.15
2019-04-07T21:16:03.865Z,10.82
2019-04-07T21:18:48.996Z,10.23
2019-04-07T21:21:52.639Z,10.78
2019-04-07T21:24:31.538Z,11.18
2019-04-07T21:27:41.014Z,10.75
2019-04-07T21:30:20.715Z,10.98
2019-04-07T21:33:13.211Z,10.78
2019-04-07T21:36:14.756Z,11.43
2019-04-07T21:38:58.321Z,10.53
2019-04-07T21:41:46.428Z,11.03
2019-04-07T21:44:50.052Z,11.28
2019-04-07T21:47:40.730Z,11.78
2019-04-07T21:50:42.501Z,11.53
2019-04-07T21:53:40.969Z,13.08
2019-04-07T21:56:44.207Z,12.23
2019-04-07T21:59:39.628Z,12.33
2019-04-07T22:02:29.941Z,13.38
2019-04-07T22:05:07.691Z,13.60
2019-04-07T22:08:10.210Z,13.53
2019-04-07T22:10:51.366Z,13.80
2019-04-07T22:13:38.853Z,14.05
2019-04-07T22:16:16.376Z,13.72
2019-04-07T22:19:10.276Z,13.65
2019-04-07T22:21:44.504Z,13.28
2019-04-07T22:24:35.931Z,13.15
2019-04-07T22:27:12.578Z,12.95
2019-04-07T22:30:06.011Z,14.15
2019-04-07T22:32:50.887Z,14.25
2019-04-07T22:35:45.341Z,13.60
2019-04-07T22:38:34.242Z,13.62
2019-04-07T22:41:11.243Z,14.83
2019-04-07T22:43:59.903Z,15.08
2019-04-07T22:49:28.469Z,13.75
2019-04-07T22:52:03.411Z,14.20
2019-04-07T22:54:53.602Z,14.78
2019-04-07T22:57:37.509Z,14.90
2019-04-07T23:00:33.689Z,15.15
2019-04-07T23:03:23.986Z,15.08
2019-04-07T23:06:07.636Z,13.80
2019-04-07T23:08:58.033Z,14.63
2019-04-07T23:11:35.349Z,15.68
2019-04-07T23:14:25.397Z,15.93
2019-04-07T23:17:08.625Z,15.28
2019-04-07T23:19:58.868Z,15.20
2019-04-07T23:22:42.538Z,15.28
2019-04-07T23:25:32.243Z,15.13
2019-04-07T23:28:08.268Z,15.68
2019-04-07T23:30:57.532Z,16.10
2019-04-07T23:33:34.625Z,15.28
2019-04-07T23:36:24.196Z,15.80
2019-04-07T23:39:07.559Z,16.45
2019-04-07T23:42:02.932Z,17.20
2019-04-07T23:44:53.157Z,17.52
2019-04-07T23:47:29.077Z,17.80
2019-04-07T23:52:53.920Z,18.02
2019-04-07T23:55:36.170Z,17.75
2019-04-07T23:58:19.118Z,17.95
